sensor_id;sensor_type;location;lat;lon;timestamp;P1;durP1;ratioP1;P2;durP2;ratioP2
17494;SDS011;8864;51.970;4.614;2024-01-30T00:02:02;5.53;;;3.40;;
17494;SDS011;8864;51.970;4.614;2024-01-30T00:04:29;6.20;;;2.90;;
17494;SDS011;8864;51.970;4.614;2024-01-30T00:06:56;5.78;;;2.80;;
17494;SDS011;8864;51.970;4.614;2024-01-30T00:09:24;7.78;;;2.88;;
17494;SDS011;8864;51.970;4.614;2024-01-30T00:11:51;5.20;;;2.88;;
17494;SDS011;8864;51.970;4.614;2024-01-30T00:14:18;6.90;;;3.22;;
17494;SDS011;8864;51.970;4.614;2024-01-30T00:16:45;5.05;;;2.78;;
17494;SDS011;8864;51.970;4.614;2024-01-30T00:19:12;5.90;;;3.00;;
17494;SDS011;8864;51.970;4.614;2024-01-30T00:21:39;5.45;;;2.88;;
17494;SDS011;8864;51.970;4.614;2024-01-30T00:24:06;7.45;;;2.97;;
17494;SDS011;8864;51.970;4.614;2024-01-30T00:26:34;8.70;;;2.90;;
17494;SDS011;8864;51.970;4.614;2024-01-30T00:29:01;7.03;;;2.65;;
17494;SDS011;8864;51.970;4.614;2024-01-30T00:31:28;6.10;;;2.88;;
17494;SDS011;8864;51.970;4.614;2024-01-30T00:33:55;8.65;;;3.03;;
17494;SDS011;8864;51.970;4.614;2024-01-30T00:36:22;5.57;;;3.17;;
17494;SDS011;8864;51.970;4.614;2024-01-30T00:38:49;5.60;;;2.95;;
17494;SDS011;8864;51.970;4.614;2024-01-30T00:41:17;4.32;;;2.92;;
17494;SDS011;8864;51.970;4.614;2024-01-30T00:43:45;7.25;;;3.17;;
17494;SDS011;8864;51.970;4.614;2024-01-30T00:46:12;5.13;;;2.88;;
17494;SDS011;8864;51.970;4.614;2024-01-30T00:48:39;5.53;;;2.90;;
17494;SDS011;8864;51.970;4.614;2024-01-30T00:51:06;5.50;;;2.95;;
17494;SDS011;8864;51.970;4.614;2024-01-30T00:53:33;5.15;;;3.00;;
17494;SDS011;8864;51.970;4.614;2024-01-30T00:56:00;8.48;;;3.58;;
17494;SDS011;8864;51.970;4.614;2024-01-30T00:58:27;7.57;;;3.17;;
17494;SDS011;8864;51.970;4.614;2024-01-30T01:00:55;5.38;;;3.05;;
17494;SDS011;8864;51.970;4.614;2024-01-30T01:03:22;5.10;;;3.03;;
17494;SDS011;8864;51.970;4.614;2024-01-30T01:05:49;8.15;;;2.97;;
17494;SDS011;8864;51.970;4.614;2024-01-30T01:08:16;7.57;;;2.78;;
17494;SDS011;8864;51.970;4.614;2024-01-30T01:10:43;5.70;;;3.38;;
17494;SDS011;8864;51.970;4.614;2024-01-30T01:13:10;6.10;;;3.33;;
17494;SDS011;8864;51.970;4.614;2024-01-30T01:15:37;5.70;;;2.80;;
17494;SDS011;8864;51.970;4.614;2024-01-30T01:18:05;4.57;;;2.95;;
17494;SDS011;8864;51.970;4.614;2024-01-30T01:20:32;5.65;;;2.63;;
17494;SDS011;8864;51.970;4.614;2024-01-30T01:22:59;6.15;;;2.92;;
17494;SDS011;8864;51.970;4.614;2024-01-30T01:25:26;6.78;;;3.08;;
17494;SDS011;8864;51.970;4.614;2024-01-30T01:27:53;4.70;;;2.60;;
17494;SDS011;8864;51.970;4.614;2024-01-30T01:30:20;6.78;;;3.25;;
17494;SDS011;8864;51.970;4.614;2024-01-30T01:32:48;6.25;;;2.67;;
17494;SDS011;8864;51.970;4.614;2024-01-30T01:35:21;5.30;;;2.92;;
17494;SDS011;8864;51.970;4.614;2024-01-30T01:37:49;4.85;;;2.58;;
17494;SDS011;8864;51.970;4.614;2024-01-30T01:40:20;5.22;;;2.83;;
17494;SDS011;8864;51.970;4.614;2024-01-30T01:42:49;6.40;;;3.20;;
17494;SDS011;8864;51.970;4.614;2024-01-30T01:45:16;5.22;;;2.78;;
17494;SDS011;8864;51.970;4.614;2024-01-30T01:47:43;5.10;;;2.70;;
17494;SDS011;8864;51.970;4.614;2024-01-30T01:50:13;6.93;;;2.70;;
17494;SDS011;8864;51.970;4.614;2024-01-30T01:52:44;6.22;;;3.20;;
17494;SDS011;8864;51.970;4.614;2024-01-30T01:55:14;4.97;;;2.85;;
17494;SDS011;8864;51.970;4.614;2024-01-30T01:57:43;8.05;;;2.80;;
17494;SDS011;8864;51.970;4.614;2024-01-30T02:00:11;4.28;;;2.80;;
17494;SDS011;8864;51.970;4.614;2024-01-30T02:02:40;6.25;;;2.95;;
17494;SDS011;8864;51.970;4.614;2024-01-30T02:05:09;4.40;;;2.58;;
17494;SDS011;8864;51.970;4.614;2024-01-30T02:07:36;4.95;;;2.85;;
17494;SDS011;8864;51.970;4.614;2024-01-30T02:10:06;8.07;;;3.10;;
17494;SDS011;8864;51.970;4.614;2024-01-30T02:12:34;6.47;;;2.83;;
17494;SDS011;8864;51.970;4.614;2024-01-30T02:15:01;5.53;;;2.83;;
17494;SDS011;8864;51.970;4.614;2024-01-30T02:17:28;5.78;;;2.90;;
17494;SDS011;8864;51.970;4.614;2024-01-30T02:19:55;6.68;;;2.92;;
17494;SDS011;8864;51.970;4.614;2024-01-30T02:22:23;5.72;;;2.72;;
17494;SDS011;8864;51.970;4.614;2024-01-30T02:24:50;4.65;;;2.60;;
17494;SDS011;8864;51.970;4.614;2024-01-30T02:27:17;5.40;;;2.97;;
17494;SDS011;8864;51.970;4.614;2024-01-30T02:29:44;4.28;;;2.45;;
17494;SDS011;8864;51.970;4.614;2024-01-30T02:32:11;5.20;;;2.70;;
17494;SDS011;8864;51.970;4.614;2024-01-30T02:34:38;6.57;;;3.13;;
17494;SDS011;8864;51.970;4.614;2024-01-30T02:37:05;4.63;;;2.97;;
17494;SDS011;8864;51.970;4.614;2024-01-30T02:39:33;5.32;;;3.00;;
17494;SDS011;8864;51.970;4.614;2024-01-30T02:42:00;6.47;;;2.90;;
17494;SDS011;8864;51.970;4.614;2024-01-30T02:44:27;4.72;;;2.92;;
17494;SDS011;8864;51.970;4.614;2024-01-30T02:46:54;5.38;;;2.90;;
17494;SDS011;8864;51.970;4.614;2024-01-30T02:49:21;4.75;;;2.75;;
17494;SDS011;8864;51.970;4.614;2024-01-30T02:51:48;5.82;;;2.70;;
17494;SDS011;8864;51.970;4.614;2024-01-30T02:54:15;3.88;;;2.50;;
17494;SDS011;8864;51.970;4.614;2024-01-30T02:56:44;6.38;;;2.70;;
17494;SDS011;8864;51.970;4.614;2024-01-30T02:59:11;6.35;;;2.90;;
17494;SDS011;8864;51.970;4.614;2024-01-30T03:01:44;4.80;;;2.72;;
17494;SDS011;8864;51.970;4.614;2024-01-30T03:04:11;5.30;;;3.55;;
17494;SDS011;8864;51.970;4.614;2024-01-30T03:06:38;7.30;;;2.40;;
17494;SDS011;8864;51.970;4.614;2024-01-30T03:09:12;4.80;;;2.60;;
17494;SDS011;8864;51.970;4.614;2024-01-30T03:11:39;4.55;;;2.47;;
17494;SDS011;8864;51.970;4.614;2024-01-30T03:14:07;5.30;;;2.65;;
17494;SDS011;8864;51.970;4.614;2024-01-30T03:16:36;4.28;;;2.35;;
17494;SDS011;8864;51.970;4.614;2024-01-30T03:19:03;5.13;;;2.75;;
17494;SDS011;8864;51.970;4.614;2024-01-30T03:21:30;8.43;;;2.90;;
17494;SDS011;8864;51.970;4.614;2024-01-30T03:23:57;4.55;;;2.80;;
17494;SDS011;8864;51.970;4.614;2024-01-30T03:26:24;5.25;;;2.47;;
17494;SDS011;8864;51.970;4.614;2024-01-30T03:28:52;7.47;;;2.72;;
17494;SDS011;8864;51.970;4.614;2024-01-30T03:31:20;4.72;;;2.50;;
17494;SDS011;8864;51.970;4.614;2024-01-30T03:33:47;5.57;;;2.50;;
17494;SDS011;8864;51.970;4.614;2024-01-30T03:36:15;5.20;;;2.40;;
17494;SDS011;8864;51.970;4.614;2024-01-30T03:38:42;7.00;;;2.55;;
17494;SDS011;8864;51.970;4.614;2024-01-30T03:41:09;6.55;;;2.70;;
17494;SDS011;8864;51.970;4.614;2024-01-30T03:43:36;6.40;;;2.47;;
17494;SDS011;8864;51.970;4.614;2024-01-30T03:46:03;4.57;;;2.55;;
17494;SDS011;8864;51.970;4.614;2024-01-30T03:48:32;5.07;;;2.83;;
17494;SDS011;8864;51.970;4.614;2024-01-30T03:50:58;5.32;;;2.63;;
17494;SDS011;8864;51.970;4.614;2024-01-30T03:53:25;7.72;;;2.67;;
17494;SDS011;8864;51.970;4.614;2024-01-30T03:55:52;6.10;;;2.90;;
17494;SDS011;8864;51.970;4.614;2024-01-30T03:58:19;4.07;;;2.58;;
17494;SDS011;8864;51.970;4.614;2024-01-30T04:00:46;3.88;;;2.40;;
17494;SDS011;8864;51.970;4.614;2024-01-30T04:03:14;7.43;;;2.10;;
17494;SDS011;8864;51.970;4.614;2024-01-30T04:05:42;6.30;;;2.28;;
17494;SDS011;8864;51.970;4.614;2024-01-30T04:08:10;4.35;;;2.47;;
17494;SDS011;8864;51.970;4.614;2024-01-30T04:10:37;4.60;;;2.35;;
17494;SDS011;8864;51.970;4.614;2024-01-30T04:13:03;3.72;;;2.10;;
17494;SDS011;8864;51.970;4.614;2024-01-30T04:15:30;4.38;;;2.25;;
17494;SDS011;8864;51.970;4.614;2024-01-30T04:17:58;6.50;;;2.53;;
17494;SDS011;8864;51.970;4.614;2024-01-30T04:20:25;6.65;;;2.40;;
17494;SDS011;8864;51.970;4.614;2024-01-30T04:22:53;4.57;;;2.78;;
17494;SDS011;8864;51.970;4.614;2024-01-30T04:25:20;6.43;;;2.45;;
17494;SDS011;8864;51.970;4.614;2024-01-30T04:27:47;3.25;;;2.20;;
17494;SDS011;8864;51.970;4.614;2024-01-30T04:30:14;4.93;;;2.58;;
17494;SDS011;8864;51.970;4.614;2024-01-30T04:32:41;11.07;;;2.70;;
17494;SDS011;8864;51.970;4.614;2024-01-30T04:35:08;3.00;;;2.17;;
17494;SDS011;8864;51.970;4.614;2024-01-30T04:37:35;4.47;;;2.45;;
17494;SDS011;8864;51.970;4.614;2024-01-30T04:40:04;6.65;;;2.63;;
17494;SDS011;8864;51.970;4.614;2024-01-30T04:42:33;3.90;;;2.38;;
17494;SDS011;8864;51.970;4.614;2024-01-30T04:45:00;4.88;;;2.20;;
17494;SDS011;8864;51.970;4.614;2024-01-30T04:47:27;4.57;;;2.13;;
17494;SDS011;8864;51.970;4.614;2024-01-30T04:49:54;6.38;;;2.40;;
17494;SDS011;8864;51.970;4.614;2024-01-30T04:52:21;6.38;;;2.33;;
17494;SDS011;8864;51.970;4.614;2024-01-30T04:54:48;4.40;;;2.30;;
17494;SDS011;8864;51.970;4.614;2024-01-30T04:57:16;3.42;;;2.40;;
17494;SDS011;8864;51.970;4.614;2024-01-30T04:59:43;5.10;;;2.42;;
17494;SDS011;8864;51.970;4.614;2024-01-30T05:02:10;7.07;;;2.63;;
17494;SDS011;8864;51.970;4.614;2024-01-30T05:04:37;3.35;;;2.20;;
17494;SDS011;8864;51.970;4.614;2024-01-30T05:07:04;4.38;;;2.40;;
17494;SDS011;8864;51.970;4.614;2024-01-30T05:09:31;4.15;;;2.38;;
17494;SDS011;8864;51.970;4.614;2024-01-30T05:11:57;6.22;;;2.22;;
17494;SDS011;8864;51.970;4.614;2024-01-30T05:14:26;4.70;;;2.33;;
17494;SDS011;8864;51.970;4.614;2024-01-30T05:16:53;4.40;;;2.15;;
17494;SDS011;8864;51.970;4.614;2024-01-30T05:19:20;2.97;;;2.08;;
17494;SDS011;8864;51.970;4.614;2024-01-30T05:21:48;4.10;;;2.35;;
17494;SDS011;8864;51.970;4.614;2024-01-30T05:24:15;6.13;;;2.20;;
17494;SDS011;8864;51.970;4.614;2024-01-30T05:26:42;4.72;;;2.55;;
17494;SDS011;8864;51.970;4.614;2024-01-30T05:29:09;4.03;;;2.15;;
17494;SDS011;8864;51.970;4.614;2024-01-30T05:31:37;3.92;;;2.30;;
17494;SDS011;8864;51.970;4.614;2024-01-30T05:34:04;3.75;;;2.20;;
17494;SDS011;8864;51.970;4.614;2024-01-30T05:36:31;5.55;;;2.40;;
17494;SDS011;8864;51.970;4.614;2024-01-30T05:38:58;4.00;;;2.00;;
17494;SDS011;8864;51.970;4.614;2024-01-30T05:41:25;5.13;;;2.25;;
17494;SDS011;8864;51.970;4.614;2024-01-30T05:43:52;4.95;;;2.67;;
17494;SDS011;8864;51.970;4.614;2024-01-30T05:46:19;6.50;;;2.30;;
17494;SDS011;8864;51.970;4.614;2024-01-30T05:48:48;4.78;;;1.90;;
17494;SDS011;8864;51.970;4.614;2024-01-30T05:51:15;3.28;;;2.08;;
17494;SDS011;8864;51.970;4.614;2024-01-30T05:53:41;3.92;;;1.98;;
17494;SDS011;8864;51.970;4.614;2024-01-30T05:56:08;2.88;;;1.85;;
17494;SDS011;8864;51.970;4.614;2024-01-30T05:58:35;2.80;;;1.98;;
17494;SDS011;8864;51.970;4.614;2024-01-30T06:01:03;4.05;;;1.90;;
17494;SDS011;8864;51.970;4.614;2024-01-30T06:03:33;4.45;;;2.55;;
17494;SDS011;8864;51.970;4.614;2024-01-30T06:06:01;4.72;;;2.35;;
17494;SDS011;8864;51.970;4.614;2024-01-30T06:08:28;4.30;;;2.30;;
17494;SDS011;8864;51.970;4.614;2024-01-30T06:10:55;4.05;;;2.03;;
17494;SDS011;8864;51.970;4.614;2024-01-30T06:13:22;3.92;;;2.13;;
17494;SDS011;8864;51.970;4.614;2024-01-30T06:15:49;4.90;;;2.33;;
17494;SDS011;8864;51.970;4.614;2024-01-30T06:18:16;5.53;;;2.33;;
17494;SDS011;8864;51.970;4.614;2024-01-30T06:20:43;5.07;;;2.22;;
17494;SDS011;8864;51.970;4.614;2024-01-30T06:23:12;4.25;;;2.42;;
17494;SDS011;8864;51.970;4.614;2024-01-30T06:25:39;6.20;;;2.45;;
17494;SDS011;8864;51.970;4.614;2024-01-30T06:28:06;4.57;;;2.20;;
17494;SDS011;8864;51.970;4.614;2024-01-30T06:30:33;4.68;;;2.33;;
17494;SDS011;8864;51.970;4.614;2024-01-30T06:33:00;4.53;;;2.05;;
17494;SDS011;8864;51.970;4.614;2024-01-30T06:35:27;3.78;;;2.15;;
17494;SDS011;8864;51.970;4.614;2024-01-30T06:37:54;3.75;;;2.20;;
17494;SDS011;8864;51.970;4.614;2024-01-30T06:40:22;4.03;;;2.08;;
17494;SDS011;8864;51.970;4.614;2024-01-30T06:42:49;3.35;;;2.08;;
17494;SDS011;8864;51.970;4.614;2024-01-30T06:45:16;5.78;;;2.45;;
17494;SDS011;8864;51.970;4.614;2024-01-30T06:47:43;5.13;;;2.00;;
17494;SDS011;8864;51.970;4.614;2024-01-30T06:50:10;4.70;;;2.30;;
17494;SDS011;8864;51.970;4.614;2024-01-30T06:52:37;4.68;;;2.17;;
17494;SDS011;8864;51.970;4.614;2024-01-30T06:55:04;2.88;;;2.08;;
17494;SDS011;8864;51.970;4.614;2024-01-30T06:57:33;3.47;;;2.15;;
17494;SDS011;8864;51.970;4.614;2024-01-30T07:00:00;3.58;;;2.00;;
17494;SDS011;8864;51.970;4.614;2024-01-30T07:02:27;4.00;;;2.30;;
17494;SDS011;8864;51.970;4.614;2024-01-30T07:04:53;4.07;;;1.90;;
17494;SDS011;8864;51.970;4.614;2024-01-30T07:07:20;3.88;;;2.08;;
17494;SDS011;8864;51.970;4.614;2024-01-30T07:09:47;3.42;;;1.75;;
17494;SDS011;8864;51.970;4.614;2024-01-30T07:12:17;4.18;;;2.05;;
17494;SDS011;8864;51.970;4.614;2024-01-30T07:14:45;4.07;;;1.92;;
17494;SDS011;8864;51.970;4.614;2024-01-30T07:17:12;3.25;;;1.98;;
17494;SDS011;8864;51.970;4.614;2024-01-30T07:19:39;3.63;;;2.10;;
17494;SDS011;8864;51.970;4.614;2024-01-30T07:22:06;4.68;;;2.30;;
17494;SDS011;8864;51.970;4.614;2024-01-30T07:24:33;4.78;;;2.00;;
17494;SDS011;8864;51.970;4.614;2024-01-30T07:27:00;3.47;;;1.90;;
17494;SDS011;8864;51.970;4.614;2024-01-30T07:29:28;5.70;;;2.20;;
17494;SDS011;8864;51.970;4.614;2024-01-30T07:31:56;6.70;;;2.13;;
17494;SDS011;8864;51.970;4.614;2024-01-30T07:34:23;2.97;;;2.20;;
17494;SDS011;8864;51.970;4.614;2024-01-30T07:36:50;6.97;;;2.35;;
17494;SDS011;8864;51.970;4.614;2024-01-30T07:39:17;6.75;;;2.20;;
17494;SDS011;8864;51.970;4.614;2024-01-30T07:41:43;4.13;;;2.20;;
17494;SDS011;8864;51.970;4.614;2024-01-30T07:44:10;7.72;;;2.30;;
17494;SDS011;8864;51.970;4.614;2024-01-30T07:46:37;6.30;;;2.42;;
17494;SDS011;8864;51.970;4.614;2024-01-30T07:49:05;4.55;;;2.22;;
17494;SDS011;8864;51.970;4.614;2024-01-30T07:51:32;7.20;;;2.50;;
17494;SDS011;8864;51.970;4.614;2024-01-30T07:53:59;4.70;;;2.30;;
17494;SDS011;8864;51.970;4.614;2024-01-30T07:56:26;4.63;;;2.50;;
17494;SDS011;8864;51.970;4.614;2024-01-30T07:58:53;4.07;;;2.28;;
17494;SDS011;8864;51.970;4.614;2024-01-30T08:01:20;5.32;;;2.20;;
17494;SDS011;8864;51.970;4.614;2024-01-30T08:03:53;3.60;;;2.20;;
17494;SDS011;8864;51.970;4.614;2024-01-30T08:06:22;4.55;;;2.40;;
17494;SDS011;8864;51.970;4.614;2024-01-30T08:08:50;8.70;;;2.35;;
17494;SDS011;8864;51.970;4.614;2024-01-30T08:11:19;3.75;;;2.08;;
17494;SDS011;8864;51.970;4.614;2024-01-30T08:13:50;4.50;;;2.15;;
17494;SDS011;8864;51.970;4.614;2024-01-30T08:16:17;4.13;;;2.20;;
17494;SDS011;8864;51.970;4.614;2024-01-30T08:18:44;4.05;;;2.22;;
17494;SDS011;8864;51.970;4.614;2024-01-30T08:21:11;5.95;;;2.30;;
17494;SDS011;8864;51.970;4.614;2024-01-30T08:23:39;4.82;;;2.30;;
17494;SDS011;8864;51.970;4.614;2024-01-30T08:26:09;3.67;;;2.00;;
17494;SDS011;8864;51.970;4.614;2024-01-30T08:28:36;6.22;;;2.47;;
17494;SDS011;8864;51.970;4.614;2024-01-30T08:31:03;4.05;;;2.35;;
17494;SDS011;8864;51.970;4.614;2024-01-30T08:33:30;5.35;;;2.22;;
17494;SDS011;8864;51.970;4.614;2024-01-30T08:35:57;6.22;;;2.67;;
17494;SDS011;8864;51.970;4.614;2024-01-30T08:38:24;6.22;;;2.38;;
17494;SDS011;8864;51.970;4.614;2024-01-30T08:40:52;5.97;;;2.13;;
17494;SDS011;8864;51.970;4.614;2024-01-30T08:43:19;3.97;;;2.35;;
17494;SDS011;8864;51.970;4.614;2024-01-30T08:45:46;3.85;;;2.03;;
17494;SDS011;8864;51.970;4.614;2024-01-30T08:48:13;5.43;;;2.20;;
17494;SDS011;8864;51.970;4.614;2024-01-30T08:50:40;6.88;;;2.40;;
17494;SDS011;8864;51.970;4.614;2024-01-30T08:53:07;8.90;;;2.53;;
17494;SDS011;8864;51.970;4.614;2024-01-30T08:55:34;4.25;;;2.20;;
17494;SDS011;8864;51.970;4.614;2024-01-30T08:58:02;5.88;;;2.60;;
17494;SDS011;8864;51.970;4.614;2024-01-30T09:00:30;5.93;;;2.20;;
17494;SDS011;8864;51.970;4.614;2024-01-30T09:02:57;7.18;;;2.25;;
17494;SDS011;8864;51.970;4.614;2024-01-30T09:05:24;4.18;;;2.35;;
17494;SDS011;8864;51.970;4.614;2024-01-30T09:07:51;9.38;;;2.95;;
17494;SDS011;8864;51.970;4.614;2024-01-30T09:10:18;6.45;;;2.28;;
17494;SDS011;8864;51.970;4.614;2024-01-30T09:12:45;5.75;;;3.10;;
17494;SDS011;8864;51.970;4.614;2024-01-30T09:15:14;18.58;;;4.20;;
17494;SDS011;8864;51.970;4.614;2024-01-30T09:17:41;42.00;;;9.45;;
17494;SDS011;8864;51.970;4.614;2024-01-30T09:20:08;31.73;;;6.95;;
17494;SDS011;8864;51.970;4.614;2024-01-30T09:22:36;30.25;;;6.55;;
17494;SDS011;8864;51.970;4.614;2024-01-30T09:25:04;30.73;;;6.13;;
17494;SDS011;8864;51.970;4.614;2024-01-30T09:27:31;49.45;;;6.78;;
17494;SDS011;8864;51.970;4.614;2024-01-30T09:29:58;30.02;;;5.80;;
17494;SDS011;8864;51.970;4.614;2024-01-30T09:32:26;32.05;;;6.25;;
17494;SDS011;8864;51.970;4.614;2024-01-30T09:34:53;26.88;;;6.22;;
17494;SDS011;8864;51.970;4.614;2024-01-30T09:37:20;27.63;;;5.90;;
17494;SDS011;8864;51.970;4.614;2024-01-30T09:39:47;20.98;;;5.72;;
17494;SDS011;8864;51.970;4.614;2024-01-30T09:42:18;17.33;;;4.85;;
17494;SDS011;8864;51.970;4.614;2024-01-30T09:44:52;17.15;;;4.75;;
17494;SDS011;8864;51.970;4.614;2024-01-30T09:47:20;16.48;;;4.45;;
17494;SDS011;8864;51.970;4.614;2024-01-30T09:49:48;20.52;;;4.53;;
17494;SDS011;8864;51.970;4.614;2024-01-30T09:52:17;15.27;;;4.50;;
17494;SDS011;8864;51.970;4.614;2024-01-30T09:54:44;11.65;;;4.35;;
17494;SDS011;8864;51.970;4.614;2024-01-30T09:57:13;20.92;;;4.28;;
17494;SDS011;8864;51.970;4.614;2024-01-30T09:59:41;11.40;;;4.15;;
17494;SDS011;8864;51.970;4.614;2024-01-30T10:02:08;11.70;;;3.80;;
17494;SDS011;8864;51.970;4.614;2024-01-30T10:04:35;14.63;;;4.45;;
17494;SDS011;8864;51.970;4.614;2024-01-30T10:07:04;14.15;;;3.70;;
17494;SDS011;8864;51.970;4.614;2024-01-30T10:09:31;12.80;;;4.15;;
17494;SDS011;8864;51.970;4.614;2024-01-30T10:11:59;12.15;;;3.63;;
17494;SDS011;8864;51.970;4.614;2024-01-30T10:14:28;8.45;;;3.78;;
17494;SDS011;8864;51.970;4.614;2024-01-30T10:16:55;9.75;;;3.45;;
17494;SDS011;8864;51.970;4.614;2024-01-30T10:19:24;11.35;;;2.90;;
17494;SDS011;8864;51.970;4.614;2024-01-30T10:21:51;10.63;;;3.13;;
17494;SDS011;8864;51.970;4.614;2024-01-30T10:24:23;8.80;;;3.20;;
17494;SDS011;8864;51.970;4.614;2024-01-30T10:26:50;6.88;;;2.92;;
17494;SDS011;8864;51.970;4.614;2024-01-30T10:29:18;8.02;;;2.95;;
17494;SDS011;8864;51.970;4.614;2024-01-30T10:31:44;8.32;;;2.80;;
17494;SDS011;8864;51.970;4.614;2024-01-30T10:34:12;9.77;;;2.80;;
17494;SDS011;8864;51.970;4.614;2024-01-30T10:36:39;7.00;;;2.30;;
17494;SDS011;8864;51.970;4.614;2024-01-30T10:39:08;7.40;;;2.70;;
17494;SDS011;8864;51.970;4.614;2024-01-30T10:41:39;6.82;;;2.42;;
17494;SDS011;8864;51.970;4.614;2024-01-30T10:44:10;6.05;;;2.47;;
17494;SDS011;8864;51.970;4.614;2024-01-30T10:46:38;7.72;;;2.00;;
17494;SDS011;8864;51.970;4.614;2024-01-30T10:49:07;6.18;;;2.55;;
17494;SDS011;8864;51.970;4.614;2024-01-30T10:51:35;8.40;;;2.20;;
17494;SDS011;8864;51.970;4.614;2024-01-30T10:54:04;6.65;;;2.33;;
17494;SDS011;8864;51.970;4.614;2024-01-30T10:56:32;7.50;;;1.77;;
17494;SDS011;8864;51.970;4.614;2024-01-30T10:59:02;4.38;;;2.00;;
17494;SDS011;8864;51.970;4.614;2024-01-30T11:01:29;7.10;;;2.05;;
17494;SDS011;8864;51.970;4.614;2024-01-30T11:03:57;6.53;;;2.08;;
17494;SDS011;8864;51.970;4.614;2024-01-30T11:06:25;5.85;;;1.95;;
17494;SDS011;8864;51.970;4.614;2024-01-30T11:09:01;6.90;;;1.60;;
17494;SDS011;8864;51.970;4.614;2024-01-30T11:11:47;5.70;;;1.48;;
17494;SDS011;8864;51.970;4.614;2024-01-30T11:14:23;6.68;;;1.77;;
17494;SDS011;8864;51.970;4.614;2024-01-30T11:16:51;9.40;;;1.50;;
17494;SDS011;8864;51.970;4.614;2024-01-30T11:19:22;7.75;;;1.73;;
17494;SDS011;8864;51.970;4.614;2024-01-30T11:21:51;5.20;;;1.50;;
17494;SDS011;8864;51.970;4.614;2024-01-30T11:24:20;7.00;;;1.40;;
17494;SDS011;8864;51.970;4.614;2024-01-30T11:26:48;4.85;;;1.40;;
17494;SDS011;8864;51.970;4.614;2024-01-30T11:29:16;6.40;;;1.38;;
17494;SDS011;8864;51.970;4.614;2024-01-30T11:31:52;4.18;;;0.90;;
17494;SDS011;8864;51.970;4.614;2024-01-30T11:34:20;5.63;;;1.15;;
17494;SDS011;8864;51.970;4.614;2024-01-30T11:36:48;12.27;;;1.45;;
17494;SDS011;8864;51.970;4.614;2024-01-30T11:39:20;8.95;;;1.35;;
17494;SDS011;8864;51.970;4.614;2024-01-30T11:41:48;6.95;;;1.33;;
17494;SDS011;8864;51.970;4.614;2024-01-30T11:44:17;8.07;;;1.20;;
17494;SDS011;8864;51.970;4.614;2024-01-30T11:46:46;8.07;;;1.20;;
17494;SDS011;8864;51.970;4.614;2024-01-30T11:49:15;4.32;;;1.00;;
17494;SDS011;8864;51.970;4.614;2024-01-30T11:51:43;4.95;;;1.55;;
17494;SDS011;8864;51.970;4.614;2024-01-30T11:54:13;4.82;;;1.00;;
17494;SDS011;8864;51.970;4.614;2024-01-30T11:56:41;3.38;;;0.90;;
17494;SDS011;8864;51.970;4.614;2024-01-30T11:59:08;4.78;;;1.10;;
17494;SDS011;8864;51.970;4.614;2024-01-30T12:01:35;3.00;;;0.90;;
17494;SDS011;8864;51.970;4.614;2024-01-30T12:04:02;7.38;;;1.10;;
17494;SDS011;8864;51.970;4.614;2024-01-30T12:06:35;6.13;;;1.17;;
17494;SDS011;8864;51.970;4.614;2024-01-30T12:09:02;3.95;;;0.93;;
17494;SDS011;8864;51.970;4.614;2024-01-30T12:11:30;3.25;;;1.17;;
17494;SDS011;8864;51.970;4.614;2024-01-30T12:13:57;2.85;;;1.20;;
17494;SDS011;8864;51.970;4.614;2024-01-30T12:16:25;8.43;;;1.02;;
17494;SDS011;8864;51.970;4.614;2024-01-30T12:18:59;2.85;;;0.95;;
17494;SDS011;8864;51.970;4.614;2024-01-30T12:21:27;4.75;;;1.00;;
17494;SDS011;8864;51.970;4.614;2024-01-30T12:23:56;2.20;;;0.90;;
17494;SDS011;8864;51.970;4.614;2024-01-30T12:26:23;3.50;;;0.90;;
17494;SDS011;8864;51.970;4.614;2024-01-30T12:28:54;3.00;;;1.23;;
17494;SDS011;8864;51.970;4.614;2024-01-30T12:31:25;3.53;;;0.90;;
17494;SDS011;8864;51.970;4.614;2024-01-30T12:33:52;3.33;;;0.90;;
17494;SDS011;8864;51.970;4.614;2024-01-30T12:36:20;3.50;;;1.00;;
17494;SDS011;8864;51.970;4.614;2024-01-30T12:38:47;2.92;;;0.75;;
17494;SDS011;8864;51.970;4.614;2024-01-30T12:41:16;2.33;;;0.93;;
17494;SDS011;8864;51.970;4.614;2024-01-30T12:43:43;2.03;;;0.73;;
17494;SDS011;8864;51.970;4.614;2024-01-30T12:46:10;1.77;;;0.75;;
17494;SDS011;8864;51.970;4.614;2024-01-30T12:48:36;3.22;;;0.93;;
17494;SDS011;8864;51.970;4.614;2024-01-30T12:51:03;3.83;;;0.90;;
17494;SDS011;8864;51.970;4.614;2024-01-30T12:53:31;3.20;;;0.90;;
17494;SDS011;8864;51.970;4.614;2024-01-30T12:55:57;3.25;;;0.77;;
17494;SDS011;8864;51.970;4.614;2024-01-30T12:58:26;2.58;;;0.82;;
17494;SDS011;8864;51.970;4.614;2024-01-30T13:00:53;1.95;;;0.55;;
17494;SDS011;8864;51.970;4.614;2024-01-30T13:03:21;1.65;;;0.60;;
17494;SDS011;8864;51.970;4.614;2024-01-30T13:05:48;3.85;;;0.80;;
17494;SDS011;8864;51.970;4.614;2024-01-30T13:08:15;2.42;;;0.70;;
17494;SDS011;8864;51.970;4.614;2024-01-30T13:10:42;2.10;;;0.80;;
17494;SDS011;8864;51.970;4.614;2024-01-30T13:13:09;3.47;;;0.80;;
17494;SDS011;8864;51.970;4.614;2024-01-30T13:15:37;1.80;;;0.80;;
17494;SDS011;8864;51.970;4.614;2024-01-30T13:18:06;3.00;;;0.80;;
17494;SDS011;8864;51.970;4.614;2024-01-30T13:20:33;2.28;;;0.65;;
17494;SDS011;8864;51.970;4.614;2024-01-30T13:23:00;1.70;;;0.57;;
17494;SDS011;8864;51.970;4.614;2024-01-30T13:25:27;1.90;;;0.70;;
17494;SDS011;8864;51.970;4.614;2024-01-30T13:27:53;4.78;;;0.80;;
17494;SDS011;8864;51.970;4.614;2024-01-30T13:30:19;1.08;;;0.60;;
17494;SDS011;8864;51.970;4.614;2024-01-30T13:32:48;2.00;;;0.70;;
17494;SDS011;8864;51.970;4.614;2024-01-30T13:35:15;2.25;;;0.75;;
17494;SDS011;8864;51.970;4.614;2024-01-30T13:37:41;1.05;;;0.55;;
17494;SDS011;8864;51.970;4.614;2024-01-30T13:40:09;3.83;;;0.60;;
17494;SDS011;8864;51.970;4.614;2024-01-30T13:42:36;1.02;;;0.57;;
17494;SDS011;8864;51.970;4.614;2024-01-30T13:45:04;1.05;;;0.60;;
17494;SDS011;8864;51.970;4.614;2024-01-30T13:47:34;1.63;;;0.75;;
17494;SDS011;8864;51.970;4.614;2024-01-30T13:50:03;1.80;;;0.60;;
17494;SDS011;8864;51.970;4.614;2024-01-30T13:52:30;3.25;;;0.73;;
17494;SDS011;8864;51.970;4.614;2024-01-30T13:54:57;1.48;;;0.55;;
17494;SDS011;8864;51.970;4.614;2024-01-30T13:57:24;1.05;;;0.50;;
17494;SDS011;8864;51.970;4.614;2024-01-30T13:59:51;1.00;;;0.55;;
17494;SDS011;8864;51.970;4.614;2024-01-30T14:02:18;0.57;;;0.40;;
17494;SDS011;8864;51.970;4.614;2024-01-30T14:04:45;1.08;;;0.55;;
17494;SDS011;8864;51.970;4.614;2024-01-30T14:07:14;3.78;;;0.55;;
17494;SDS011;8864;51.970;4.614;2024-01-30T14:09:43;1.20;;;0.50;;
17494;SDS011;8864;51.970;4.614;2024-01-30T14:12:11;1.33;;;0.80;;
17494;SDS011;8864;51.970;4.614;2024-01-30T14:14:37;1.55;;;0.50;;
17494;SDS011;8864;51.970;4.614;2024-01-30T14:17:05;2.08;;;0.50;;
17494;SDS011;8864;51.970;4.614;2024-01-30T14:19:32;1.85;;;0.70;;
17494;SDS011;8864;51.970;4.614;2024-01-30T14:21:59;1.30;;;0.60;;
17494;SDS011;8864;51.970;4.614;2024-01-30T14:24:28;1.17;;;0.45;;
17494;SDS011;8864;51.970;4.614;2024-01-30T14:26:55;2.45;;;0.60;;
17494;SDS011;8864;51.970;4.614;2024-01-30T14:29:22;0.73;;;0.43;;
17494;SDS011;8864;51.970;4.614;2024-01-30T14:31:49;1.35;;;0.60;;
17494;SDS011;8864;51.970;4.614;2024-01-30T14:34:16;2.20;;;0.70;;
17494;SDS011;8864;51.970;4.614;2024-01-30T14:36:44;1.73;;;0.77;;
17494;SDS011;8864;51.970;4.614;2024-01-30T14:39:11;0.60;;;0.47;;
17494;SDS011;8864;51.970;4.614;2024-01-30T14:41:39;1.02;;;0.55;;
17494;SDS011;8864;51.970;4.614;2024-01-30T14:44:06;2.50;;;0.75;;
17494;SDS011;8864;51.970;4.614;2024-01-30T14:46:34;0.77;;;0.50;;
17494;SDS011;8864;51.970;4.614;2024-01-30T14:49:02;2.22;;;0.82;;
17494;SDS011;8864;51.970;4.614;2024-01-30T14:51:30;1.33;;;0.45;;
17494;SDS011;8864;51.970;4.614;2024-01-30T14:53:58;1.80;;;0.57;;
17494;SDS011;8864;51.970;4.614;2024-01-30T14:56:25;1.58;;;0.52;;
17494;SDS011;8864;51.970;4.614;2024-01-30T14:58:54;1.73;;;0.60;;
17494;SDS011;8864;51.970;4.614;2024-01-30T15:01:21;1.10;;;0.85;;
17494;SDS011;8864;51.970;4.614;2024-01-30T15:03:48;2.65;;;0.50;;